Terminal Aerodrome Forecast
Issued by NWS Twin Cities, MN

Home | Current Version | Previous Version | Text Only | Print | Product List | Glossary Off
Versions: 1 2 3 4 5 6 7 8 9 10 11 12 13 14 15 16 17 18 19 20

000
FTUS43 KMPX 291739
TAFEAU
TAF
KEAU 291739Z 2918/3018 32013G19KT P6SM BKN020
      TEMPO 2919/2923 SCT025 BKN045
     FM292300 34009KT P6SM SCT025
     FM301600 21005KT P6SM BKN100=

USA.gov is the U.S. government's official web portal to all federal, state and local government web resources and services.